createdAt,value
2022-08-17T00:01:30.078Z,75.68
2022-08-17T00:04:13.084Z,75.43
2022-08-17T00:06:43.339Z,75.65
2022-08-17T00:09:18.368Z,75.90
2022-08-17T00:12:42.111Z,75.82
2022-08-17T00:14:34.924Z,75.55
2022-08-17T00:17:03.651Z,75.72
2022-08-17T00:19:30.372Z,75.96
2022-08-17T00:22:31.732Z,75.90
2022-08-17T00:24:46.864Z,75.19
2022-08-17T00:27:13.371Z,75.68
2022-08-17T00:29:39.831Z,75.51
2022-08-17T00:33:13.866Z,76.02
2022-08-17T00:34:53.215Z,75.83
2022-08-17T00:37:19.769Z,75.68
2022-08-17T00:39:46.334Z,76.21
2022-08-17T00:42:14.899Z,75.68
2022-08-17T00:44:41.454Z,74.59
2022-08-17T00:47:08.086Z,74.76
2022-08-17T00:49:34.562Z,74.56
2022-08-17T00:52:10.771Z,74.40
2022-08-17T00:54:42.577Z,74.57
2022-08-17T00:57:13.950Z,74.98
2022-08-17T00:59:47.062Z,75.27
2022-08-17T01:02:41.175Z,75.15
2022-08-17T01:05:14.716Z,74.34
2022-08-17T01:07:42.709Z,75.26
2022-08-17T01:10:59.652Z,74.93
2022-08-17T01:12:58.015Z,73.74
2022-08-17T01:15:24.572Z,73.10
2022-08-17T01:17:51.178Z,73.24
2022-08-17T01:20:17.826Z,72.09
2022-08-17T01:22:45.558Z,72.14
2022-08-17T01:25:13.089Z,71.52
2022-08-17T01:27:40.816Z,70.99
2022-08-17T01:30:58.744Z,71.14
2022-08-17T01:32:57.838Z,70.70
2022-08-17T01:35:24.507Z,70.59
2022-08-17T01:37:50.956Z,70.40
2022-08-17T01:40:27.432Z,70.69
2022-08-17T01:42:58.888Z,70.96
2022-08-17T01:45:30.354Z,70.53
2022-08-17T01:47:57.509Z,70.87
2022-08-17T01:50:28.994Z,71.90
2022-08-17T01:53:03.449Z,72.37
2022-08-17T01:55:38.299Z,73.05
2022-08-17T01:58:09.566Z,73.61
2022-08-17T02:01:00.032Z,73.13
2022-08-17T02:03:27.109Z,73.74
2022-08-17T02:05:53.780Z,74.47
2022-08-17T02:08:36.922Z,75.83
2022-08-17T02:11:11.508Z,75.32
2022-08-17T02:13:38.598Z,75.95
2022-08-17T02:16:05.251Z,77.01
2022-08-17T02:18:31.762Z,77.49
2022-08-17T02:20:58.508Z,78.47
2022-08-17T02:23:28.993Z,77.94
2022-08-17T02:25:58.165Z,77.99
2022-08-17T02:28:24.683Z,77.75
2022-08-17T02:31:01.156Z,77.14
2022-08-17T02:33:41.512Z,77.32
2022-08-17T02:36:13.051Z,77.21
2022-08-17T02:38:41.114Z,77.21
2022-08-17T02:41:08.166Z,75.87
2022-08-17T02:43:35.062Z,76.19
2022-08-17T02:46:01.634Z,75.44
2022-08-17T02:48:31.031Z,75.31
2022-08-17T02:50:59.296Z,75.11
2022-08-17T02:53:26.082Z,75.07
2022-08-17T02:55:53.541Z,75.69
2022-08-17T02:58:34.515Z,75.21
2022-08-17T03:01:04.155Z,75.47
2022-08-17T03:03:30.686Z,75.81
2022-08-17T03:05:57.173Z,77.05
2022-08-17T03:08:23.849Z,76.40
2022-08-17T03:10:50.606Z,76.16
2022-08-17T03:13:17.633Z,76.01
2022-08-17T03:15:47.053Z,75.50
2022-08-17T03:18:19.260Z,75.03
2022-08-17T03:20:51.428Z,74.92
2022-08-17T03:23:18.665Z,74.88
2022-08-17T03:25:53.189Z,74.88
2022-08-17T03:28:21.180Z,73.87
2022-08-17T03:30:48.049Z,73.42
2022-08-17T03:33:14.685Z,73.03
2022-08-17T03:35:41.738Z,73.26
2022-08-17T03:38:10.860Z,73.55
2022-08-17T03:40:56.820Z,73.93
2022-08-17T03:43:27.837Z,74.90
2022-08-17T03:46:28.917Z,73.43
2022-08-17T03:49:17.728Z,74.27
2022-08-17T03:52:02.673Z,74.29
2022-08-17T03:54:47.752Z,74.03
2022-08-17T03:57:14.348Z,74.50
2022-08-17T03:59:41.431Z,74.45
2022-08-17T04:02:11.387Z,75.17
2022-08-17T04:04:38.496Z,74.62
2022-08-17T04:07:05.515Z,74.69
2022-08-17T04:09:32.388Z,74.52
2022-08-17T04:12:00.311Z,74.09
2022-08-17T04:14:36.150Z,74.60
2022-08-17T04:17:15.051Z,73.99
2022-08-17T04:19:42.020Z,73.82
2022-08-17T04:22:08.573Z,74.17
2022-08-17T04:24:35.063Z,74.08
2022-08-17T04:27:01.982Z,75.00
2022-08-17T04:29:28.478Z,74.29
2022-08-17T04:32:14.933Z,75.42
2022-08-17T04:34:41.484Z,75.75
2022-08-17T04:37:08.675Z,76.16
2022-08-17T04:39:35.436Z,75.97
2022-08-17T04:42:09.169Z,76.33
2022-08-17T04:44:37.867Z,76.37
2022-08-17T04:47:05.078Z,76.80
2022-08-17T04:49:32.561Z,77.18
2022-08-17T04:52:04.120Z,77.78
2022-08-17T04:54:31.222Z,78.29
2022-08-17T04:56:57.769Z,78.58
2022-08-17T04:59:25.434Z,78.77
2022-08-17T05:01:52.351Z,78.72
2022-08-17T05:04:35.171Z,78.78
2022-08-17T05:07:04.491Z,78.71
2022-08-17T05:09:31.592Z,78.57
2022-08-17T05:12:02.183Z,79.28
2022-08-17T05:14:33.097Z,78.57
2022-08-17T05:17:01.190Z,78.80
2022-08-17T05:19:28.601Z,78.43
2022-08-17T05:21:55.133Z,77.71
2022-08-17T05:24:39.173Z,77.67
2022-08-17T05:27:08.583Z,77.38
2022-08-17T05:29:35.464Z,78.25
2022-08-17T05:32:39.535Z,77.75
2022-08-17T05:34:59.997Z,78.13
2022-08-17T05:37:26.596Z,77.72
2022-08-17T05:39:54.359Z,77.38
2022-08-17T05:42:31.388Z,76.91
2022-08-17T05:44:59.822Z,76.52
2022-08-17T05:47:27.191Z,76.44
2022-08-17T05:49:55.648Z,76.86
2022-08-17T05:52:45.552Z,76.56
2022-08-17T05:55:27.868Z,77.02
2022-08-17T05:58:00.006Z,76.16
2022-08-17T06:00:37.633Z,76.00
2022-08-17T06:03:28.039Z,76.10
2022-08-17T06:06:17.264Z,75.91
2022-08-17T06:09:01.511Z,75.66
2022-08-17T06:12:05.781Z,75.76
2022-08-17T06:14:56.115Z,75.97
2022-08-17T06:17:28.947Z,75.79
2022-08-17T06:22:55.614Z,75.87
2022-08-17T06:25:57.239Z,76.32
2022-08-17T06:29:21.534Z,75.96
2022-08-17T06:36:01.647Z,77.15
2022-08-17T06:43:02.818Z,77.79
2022-08-17T06:59:56.402Z,77.64
2022-08-17T07:02:51.610Z,77.15
2022-08-17T07:05:40.866Z,76.97
2022-08-17T07:08:45.122Z,76.51
2022-08-17T07:11:19.125Z,75.29
2022-08-17T07:13:57.968Z,75.96
2022-08-17T07:24:42.862Z,77.16
2022-08-17T07:41:02.970Z,77.35
2022-08-17T07:43:38.121Z,77.01
2022-08-17T07:46:30.162Z,78.06
2022-08-17T07:49:18.378Z,77.80
2022-08-17T07:51:45.765Z,78.08
2022-08-17T07:54:15.484Z,77.24
2022-08-17T07:56:57.470Z,78.31
2022-08-17T07:59:33.789Z,78.54
2022-08-17T08:02:03.604Z,78.53
2022-08-17T08:05:01.488Z,78.66
2022-08-17T08:07:34.767Z,78.38
2022-08-17T08:10:07.824Z,78.53
2022-08-17T08:12:46.395Z,78.83
2022-08-17T08:15:25.527Z,78.31
2022-08-17T08:17:55.440Z,78.01
2022-08-17T08:20:53.138Z,77.17
2022-08-17T08:23:39.113Z,76.52
2022-08-17T08:26:18.876Z,76.73
2022-08-17T08:28:52.767Z,76.07
2022-08-17T08:31:42.482Z,75.31
2022-08-17T08:34:58.973Z,72.38
2022-08-17T08:37:44.821Z,71.73
2022-08-17T08:40:31.084Z,70.44
2022-08-17T08:43:26.727Z,71.09
2022-08-17T08:46:06.031Z,70.03
2022-08-17T08:48:53.786Z,69.57
2022-08-17T08:51:43.532Z,68.78
2022-08-17T08:54:36.717Z,68.93
2022-08-17T08:57:32.821Z,69.44
2022-08-17T09:00:12.850Z,68.52
2022-08-17T09:02:56.454Z,68.05
2022-08-17T09:05:42.730Z,67.48
2022-08-17T09:08:32.608Z,68.32
2022-08-17T09:11:06.030Z,67.95
2022-08-17T09:13:41.698Z,67.01
2022-08-17T09:16:20.239Z,66.21
2022-08-17T09:19:00.371Z,66.91
2022-08-17T09:21:55.230Z,66.61
2022-08-17T09:24:35.755Z,66.46
2022-08-17T09:27:12.035Z,66.58
2022-08-17T09:29:45.382Z,66.88
2022-08-17T09:32:22.148Z,67.37
2022-08-17T09:34:54.782Z,67.21
2022-08-17T09:37:35.344Z,68.46
2022-08-17T09:40:17.315Z,68.40
2022-08-17T09:43:04.004Z,69.47
2022-08-17T09:45:40.864Z,71.22
2022-08-17T09:48:18.329Z,71.20
2022-08-17T09:51:05.738Z,72.06
2022-08-17T09:53:35.473Z,73.01
2022-08-17T09:56:08.952Z,72.39
2022-08-17T09:58:59.468Z,74.11
2022-08-17T10:02:16.734Z,74.16
2022-08-17T10:05:14.082Z,73.26
2022-08-17T10:07:56.075Z,75.19
2022-08-17T10:10:34.674Z,73.97
2022-08-17T10:13:47.221Z,73.46
2022-08-17T10:16:30.157Z,73.48
2022-08-17T10:19:10.347Z,74.73
2022-08-17T10:22:19.326Z,73.83
2022-08-17T10:25:23.980Z,71.88
2022-08-17T10:27:58.584Z,71.35
2022-08-17T10:30:29.305Z,74.22
2022-08-17T10:36:48.626Z,73.63
2022-08-17T10:39:52.179Z,72.05
2022-08-17T10:42:42.598Z,70.81
2022-08-17T10:48:29.983Z,71.80
2022-08-17T10:54:07.281Z,71.60
2022-08-17T10:56:47.791Z,70.30
2022-08-17T11:02:28.008Z,70.36
2022-08-17T11:06:11.715Z,70.72
2022-08-17T11:09:33.885Z,70.02
2022-08-17T11:26:32.059Z,75.12
2022-08-17T11:39:34.198Z,76.07
2022-08-17T11:46:02.950Z,76.42
2022-08-17T11:49:25.149Z,76.88
2022-08-17T11:51:55.436Z,78.00
2022-08-17T11:54:33.342Z,78.52
2022-08-17T12:00:42.951Z,78.56
2022-08-17T12:06:15.768Z,79.61
2022-08-17T12:08:48.305Z,76.52
2022-08-17T12:11:56.394Z,78.63
2022-08-17T12:24:45.228Z,78.76
2022-08-17T12:37:50.109Z,80.36
2022-08-17T13:33:43.356Z,82.03
2022-08-17T13:49:13.890Z,81.03
2022-08-17T13:51:51.708Z,82.70
2022-08-17T14:00:40.546Z,81.78
2022-08-17T14:03:08.680Z,82.84
2022-08-17T14:05:48.130Z,83.14
2022-08-17T14:11:35.549Z,82.61
2022-08-17T14:17:04.356Z,83.45
2022-08-17T14:19:30.968Z,83.77
2022-08-17T14:24:53.757Z,83.49
2022-08-17T14:30:24.221Z,82.23
2022-08-17T14:36:02.601Z,83.24
2022-08-17T15:10:44.841Z,82.77
2022-08-17T15:38:22.319Z,80.20
2022-08-17T16:36:15.602Z,82.01
2022-08-17T16:52:39.371Z,80.56
2022-08-17T16:55:10.646Z,81.15
2022-08-17T16:57:46.171Z,81.01
2022-08-17T17:00:19.679Z,81.57
2022-08-17T17:02:49.395Z,80.52
2022-08-17T17:05:55.185Z,80.44
2022-08-17T17:08:35.147Z,80.48
2022-08-17T17:11:09.526Z,81.17
2022-08-17T17:13:47.129Z,81.40
2022-08-17T17:16:19.521Z,81.47
2022-08-17T17:19:04.625Z,81.12
2022-08-17T17:21:42.444Z,81.87
2022-08-17T17:24:16.596Z,81.71
2022-08-17T17:26:55.540Z,82.19
2022-08-17T17:29:48.522Z,82.25
2022-08-17T17:32:31.046Z,81.72
2022-08-17T17:35:06.976Z,81.06
2022-08-17T17:37:35.259Z,81.04
2022-08-17T17:40:09.360Z,82.53
2022-08-17T17:42:40.604Z,82.72
2022-08-17T17:45:15.929Z,83.03
2022-08-17T17:47:43.006Z,82.79
2022-08-17T17:50:10.532Z,83.30
2022-08-17T17:52:50.381Z,83.61
2022-08-17T17:55:39.850Z,83.40
2022-08-17T17:58:19.579Z,83.86
2022-08-17T18:01:13.401Z,83.68
2022-08-17T18:08:14.117Z,83.89
2022-08-17T18:11:24.258Z,84.59
2022-08-17T18:13:53.417Z,84.47
2022-08-17T18:18:58.503Z,84.33
2022-08-17T18:35:01.199Z,83.81
2022-08-17T18:37:49.036Z,84.18
2022-08-17T18:47:20.245Z,85.70
2022-08-17T19:00:50.662Z,85.75
2022-08-17T19:03:19.431Z,85.72
2022-08-17T19:05:55.819Z,86.18
2022-08-17T19:08:35.195Z,85.86
2022-08-17T19:11:07.618Z,86.12
2022-08-17T19:13:41.494Z,86.20
2022-08-17T19:16:18.014Z,86.19
2022-08-17T19:18:52.054Z,86.19
2022-08-17T19:21:25.253Z,86.66
2022-08-17T19:23:59.136Z,86.84
2022-08-17T19:26:54.074Z,87.23
2022-08-17T19:29:29.727Z,87.39
2022-08-17T19:31:58.415Z,87.44
2022-08-17T19:34:30.261Z,87.47
2022-08-17T19:37:11.322Z,87.56
2022-08-17T19:39:49.912Z,87.66
2022-08-17T19:42:37.213Z,87.82
2022-08-17T19:45:07.443Z,87.73
2022-08-17T19:47:57.079Z,87.62
2022-08-17T19:54:05.474Z,87.59
2022-08-17T19:57:23.640Z,87.45
2022-08-17T20:00:02.295Z,87.39
2022-08-17T20:02:37.064Z,87.30
2022-08-17T20:05:11.431Z,87.49
2022-08-17T20:07:52.541Z,87.23
2022-08-17T20:10:28.705Z,87.12
2022-08-17T20:12:58.684Z,86.85
2022-08-17T20:15:30.539Z,86.24
2022-08-17T20:18:00.654Z,86.66
2022-08-17T20:20:35.293Z,86.72
2022-08-17T20:23:12.063Z,87.18
2022-08-17T20:25:47.184Z,86.46
2022-08-17T20:28:25.516Z,86.48
2022-08-17T20:30:52.697Z,86.59
2022-08-17T20:33:28.689Z,86.31
2022-08-17T20:36:11.512Z,86.62
2022-08-17T20:38:53.743Z,86.68
2022-08-17T20:41:24.123Z,86.57
2022-08-17T20:44:03.529Z,85.63
2022-08-17T20:46:55.481Z,86.07
2022-08-17T20:49:29.476Z,85.97
2022-08-17T20:52:09.997Z,85.49
2022-08-17T20:54:53.682Z,86.05
2022-08-17T20:57:36.120Z,85.86
2022-08-17T21:00:35.003Z,86.17
2022-08-17T21:03:22.892Z,85.73
2022-08-17T21:13:35.966Z,85.38
2022-08-17T21:21:20.422Z,85.32
2022-08-17T21:58:13.597Z,84.96
2022-08-17T22:10:55.062Z,84.34
2022-08-17T22:14:05.419Z,84.73
2022-08-17T22:27:09.966Z,84.38
2022-08-17T22:29:48.081Z,84.39
2022-08-17T22:32:59.314Z,84.64
2022-08-17T22:35:49.832Z,84.63
2022-08-17T22:38:18.973Z,84.86
2022-08-17T22:40:51.851Z,85.24
2022-08-17T22:43:49.644Z,84.84
2022-08-17T22:46:23.900Z,84.68
2022-08-17T22:51:48.705Z,84.78
2022-08-17T22:54:37.014Z,85.00
2022-08-17T22:58:00.399Z,84.92
2022-08-17T23:00:32.255Z,85.11
2022-08-17T23:03:24.334Z,85.11
2022-08-17T23:11:49.858Z,85.02
2022-08-17T23:14:20.546Z,84.85
2022-08-17T23:16:50.195Z,85.08
2022-08-17T23:19:20.130Z,85.34
2022-08-17T23:21:49.263Z,85.33
2022-08-17T23:24:21.540Z,85.11
2022-08-17T23:26:48.714Z,85.60
2022-08-17T23:29:15.657Z,85.36
2022-08-17T23:31:42.407Z,85.46
2022-08-17T23:34:25.096Z,85.67
2022-08-17T23:36:53.173Z,85.54
2022-08-17T23:39:24.732Z,85.70
2022-08-17T23:41:55.768Z,85.66
2022-08-17T23:44:23.561Z,85.70
2022-08-17T23:46:51.420Z,85.62
2022-08-17T23:49:20.514Z,85.64
2022-08-17T23:51:48.222Z,85.77
2022-08-17T23:54:24.355Z,85.62
2022-08-17T23:56:51.241Z,85.76
2022-08-17T23:59:19.897Z,85.79
